createdAt,value
2018-12-31T00:01:22.435Z,28.77
2018-12-31T00:03:51.920Z,21.37
2018-12-31T00:06:21.002Z,19.93
2018-12-31T00:08:50.173Z,18.43
2018-12-31T00:11:19.266Z,18.33
2018-12-31T00:13:48.366Z,20.20
2018-12-31T00:16:17.738Z,19.00
2018-12-31T00:18:46.834Z,20.43
2018-12-31T00:21:16.205Z,20.73
2018-12-31T00:23:47.671Z,21.70
2018-12-31T00:26:16.764Z,20.93
2018-12-31T00:28:47.485Z,20.70
2018-12-31T00:31:16.752Z,22.33
2018-12-31T00:33:45.841Z,27.27
2018-12-31T00:36:14.936Z,26.37
2018-12-31T00:38:46.960Z,28.53
2018-12-31T00:41:16.060Z,25.27
2018-12-31T00:43:45.144Z,32.17
2018-12-31T00:46:14.243Z,26.80
2018-12-31T00:48:43.333Z,22.57
2018-12-31T00:51:12.427Z,22.07
2018-12-31T00:53:41.516Z,19.90
2018-12-31T00:56:10.612Z,20.60
2018-12-31T00:58:39.700Z,24.17
2018-12-31T01:01:08.788Z,21.67
2018-12-31T01:03:37.872Z,20.70
2018-12-31T01:06:06.968Z,20.90
2018-12-31T01:08:36.051Z,19.43
2018-12-31T01:11:05.150Z,19.83
2018-12-31T01:13:34.241Z,19.60
2018-12-31T01:16:03.337Z,19.50
2018-12-31T01:18:32.423Z,20.03
2018-12-31T01:21:01.520Z,19.10
2018-12-31T01:23:30.598Z,19.43
2018-12-31T01:25:59.693Z,19.73
2018-12-31T01:28:28.777Z,19.10
2018-12-31T01:30:57.874Z,18.50
2018-12-31T01:33:26.972Z,17.93
2018-12-31T01:35:56.377Z,18.70
2018-12-31T01:38:25.458Z,18.00
2018-12-31T01:40:54.558Z,17.03
2018-12-31T01:43:23.649Z,18.33
2018-12-31T01:45:53.052Z,17.93
2018-12-31T01:48:22.141Z,16.97
2018-12-31T01:50:51.245Z,17.53
2018-12-31T01:53:20.332Z,15.73
2018-12-31T01:55:49.434Z,15.33
2018-12-31T01:58:18.526Z,17.30
2018-12-31T02:00:47.606Z,16.70
2018-12-31T02:03:16.701Z,17.93
2018-12-31T02:05:45.785Z,16.70
2018-12-31T02:08:14.890Z,15.70
2018-12-31T02:10:43.975Z,14.23
2018-12-31T02:13:13.065Z,15.43
2018-12-31T02:15:42.160Z,15.87
2018-12-31T02:18:11.256Z,15.80
2018-12-31T02:20:40.352Z,15.83
2018-12-31T02:23:09.451Z,15.33
2018-12-31T02:25:38.783Z,15.17
2018-12-31T02:28:07.886Z,14.67
2018-12-31T02:30:36.972Z,15.27
2018-12-31T02:33:06.070Z,16.23
2018-12-31T02:35:35.164Z,14.77
2018-12-31T02:38:04.278Z,15.10
2018-12-31T02:40:33.357Z,15.47
2018-12-31T02:43:02.453Z,16.13
2018-12-31T02:45:31.542Z,15.33
2018-12-31T02:48:00.638Z,15.40
2018-12-31T02:50:29.722Z,15.07
2018-12-31T02:52:58.822Z,13.27
2018-12-31T02:55:27.916Z,14.53
2018-12-31T02:57:57.981Z,14.63
2018-12-31T03:00:27.384Z,14.73
2018-12-31T03:02:56.486Z,14.93
2018-12-31T03:05:25.573Z,14.23
2018-12-31T03:07:54.692Z,15.10
2018-12-31T03:10:23.773Z,14.37
2018-12-31T03:12:52.867Z,15.03
2018-12-31T03:15:21.972Z,14.67
2018-12-31T03:17:51.067Z,15.03
2018-12-31T03:20:20.206Z,14.03
2018-12-31T03:22:49.307Z,14.60
2018-12-31T03:25:18.389Z,14.63
2018-12-31T03:27:47.484Z,15.23
2018-12-31T03:30:16.566Z,13.97
2018-12-31T03:32:45.664Z,14.33
2018-12-31T03:35:14.749Z,13.97
2018-12-31T03:37:43.852Z,13.57
2018-12-31T03:40:12.937Z,14.47
2018-12-31T03:42:42.043Z,13.80
2018-12-31T03:45:11.133Z,14.87
2018-12-31T03:47:40.625Z,13.57
2018-12-31T03:50:09.705Z,13.60
2018-12-31T03:52:38.804Z,12.80
2018-12-31T03:55:07.890Z,13.63
2018-12-31T03:57:36.990Z,14.10
2018-12-31T04:00:06.245Z,14.13
2018-12-31T04:02:35.347Z,13.37
2018-12-31T04:05:04.801Z,13.27
2018-12-31T04:07:33.903Z,12.93
2018-12-31T04:10:03.074Z,12.47
2018-12-31T04:12:32.449Z,13.40
2018-12-31T04:15:01.525Z,12.50
2018-12-31T04:17:30.620Z,13.13
2018-12-31T04:19:59.756Z,12.83
2018-12-31T04:22:28.854Z,11.63
2018-12-31T04:24:57.933Z,12.70
2018-12-31T04:27:27.038Z,13.70
2018-12-31T04:29:56.123Z,12.33
2018-12-31T04:32:25.308Z,12.00
2018-12-31T04:34:54.378Z,11.23
2018-12-31T04:37:23.472Z,12.83
2018-12-31T04:39:52.555Z,11.93
2018-12-31T04:42:21.652Z,11.37
2018-12-31T04:44:50.744Z,11.00
2018-12-31T04:47:20.096Z,11.93
2018-12-31T04:49:49.185Z,11.57
2018-12-31T04:52:18.282Z,12.47
2018-12-31T04:54:47.370Z,12.30
2018-12-31T04:57:16.474Z,10.97
2018-12-31T04:59:45.628Z,11.57
2018-12-31T05:02:14.735Z,11.43
2018-12-31T05:04:43.813Z,11.70
2018-12-31T05:07:12.912Z,11.63
2018-12-31T05:09:41.995Z,10.97
2018-12-31T05:12:11.092Z,9.93
2018-12-31T05:14:40.177Z,10.67
2018-12-31T05:17:09.275Z,10.33
2018-12-31T05:19:38.361Z,10.40
2018-12-31T05:22:07.449Z,9.77
2018-12-31T05:24:36.529Z,11.37
2018-12-31T05:27:05.637Z,12.87
2018-12-31T05:29:34.710Z,9.93
2018-12-31T05:32:03.816Z,12.83
2018-12-31T05:34:32.902Z,11.23
2018-12-31T05:37:01.989Z,9.73
2018-12-31T05:39:31.090Z,9.87
2018-12-31T05:42:00.177Z,10.17
2018-12-31T05:44:29.322Z,10.83
2018-12-31T05:46:58.452Z,10.00
2018-12-31T05:49:27.543Z,10.40
2018-12-31T05:51:56.633Z,10.10
2018-12-31T05:54:25.734Z,10.17
2018-12-31T05:56:54.832Z,13.30
2018-12-31T05:59:23.938Z,12.33
2018-12-31T06:01:53.029Z,16.43
2018-12-31T06:04:22.117Z,23.57
2018-12-31T06:06:51.205Z,23.03
2018-12-31T06:09:20.326Z,18.10
2018-12-31T06:11:49.422Z,10.63
2018-12-31T06:14:18.517Z,21.23
2018-12-31T06:16:47.608Z,31.27
2018-12-31T06:19:16.696Z,25.57
2018-12-31T06:21:45.785Z,13.27
2018-12-31T06:24:14.897Z,16.70
2018-12-31T06:26:43.997Z,30.73
2018-12-31T06:29:13.094Z,42.63
2018-12-31T06:31:42.190Z,102.27
2018-12-31T06:34:11.294Z,216.20
2018-12-31T06:36:40.389Z,20.43
2018-12-31T06:39:09.497Z,12.10
2018-12-31T06:41:38.581Z,40.70
2018-12-31T06:44:07.675Z,20.77
2018-12-31T06:46:36.772Z,14.93
2018-12-31T06:49:05.900Z,14.53
2018-12-31T06:51:34.995Z,22.80
2018-12-31T06:54:04.080Z,18.63
2018-12-31T06:56:33.221Z,19.47
2018-12-31T06:59:02.354Z,31.27
2018-12-31T07:01:31.437Z,33.80
2018-12-31T07:04:00.538Z,43.83
2018-12-31T07:06:29.618Z,59.93
2018-12-31T07:08:58.709Z,32.77
2018-12-31T07:11:27.793Z,32.60
2018-12-31T07:13:56.890Z,12.33
2018-12-31T07:16:25.985Z,26.70
2018-12-31T07:18:55.077Z,26.53
2018-12-31T07:21:24.295Z,32.87
2018-12-31T07:23:53.376Z,22.10
2018-12-31T07:26:22.465Z,88.03
2018-12-31T07:28:52.528Z,28.33
2018-12-31T07:31:21.619Z,16.40
2018-12-31T07:33:50.705Z,33.03
2018-12-31T07:36:19.807Z,22.13
2018-12-31T07:38:48.961Z,25.20
2018-12-31T07:41:18.057Z,23.07
2018-12-31T07:43:47.141Z,21.07
2018-12-31T07:46:16.229Z,12.77
2018-12-31T07:48:45.313Z,13.90
2018-12-31T07:51:14.417Z,11.97
2018-12-31T07:53:43.506Z,12.23
2018-12-31T07:56:12.601Z,16.50
2018-12-31T07:58:41.689Z,19.07
2018-12-31T08:01:10.867Z,33.90
2018-12-31T08:03:39.958Z,23.13
2018-12-31T08:06:09.054Z,25.73
2018-12-31T08:08:38.151Z,21.27
2018-12-31T08:11:07.246Z,10.20
2018-12-31T08:13:36.500Z,9.50
2018-12-31T08:16:05.613Z,10.87
2018-12-31T08:18:34.705Z,9.67
2018-12-31T08:21:03.798Z,7.77
2018-12-31T08:23:32.878Z,8.57
2018-12-31T08:26:01.997Z,8.80
2018-12-31T08:28:31.081Z,8.20
2018-12-31T08:31:00.178Z,7.63
2018-12-31T08:33:29.258Z,8.23
2018-12-31T08:35:58.345Z,9.60
2018-12-31T08:38:27.428Z,9.57
2018-12-31T08:40:56.526Z,9.60
2018-12-31T08:43:25.618Z,80.70
2018-12-31T08:45:57.123Z,12.27
2018-12-31T08:48:26.465Z,25.93
2018-12-31T08:50:55.568Z,19.53
2018-12-31T08:53:25.633Z,10.30
2018-12-31T08:55:54.734Z,14.87
2018-12-31T08:58:23.854Z,8.97
2018-12-31T09:00:52.960Z,8.10
2018-12-31T09:03:22.054Z,13.73
2018-12-31T09:05:51.158Z,9.70
2018-12-31T09:08:20.239Z,11.70
2018-12-31T09:10:50.406Z,16.87
2018-12-31T09:13:19.496Z,26.40
2018-12-31T09:15:48.580Z,21.87
2018-12-31T09:18:17.665Z,19.90
2018-12-31T09:20:46.777Z,28.90
2018-12-31T09:23:15.857Z,17.37
2018-12-31T09:25:44.952Z,12.53
2018-12-31T09:28:14.053Z,15.83
2018-12-31T09:30:43.141Z,15.77
2018-12-31T09:33:12.239Z,20.13
2018-12-31T09:35:41.326Z,18.37
2018-12-31T09:38:10.435Z,14.53
2018-12-31T09:40:39.576Z,16.17
2018-12-31T09:43:08.677Z,13.67
2018-12-31T09:45:37.768Z,16.13
2018-12-31T09:48:06.867Z,21.50
2018-12-31T09:50:35.953Z,15.83
2018-12-31T09:53:05.042Z,12.70
2018-12-31T09:55:34.209Z,12.07
2018-12-31T09:58:03.293Z,14.83
2018-12-31T10:00:32.394Z,13.63
2018-12-31T10:03:01.484Z,12.40
2018-12-31T10:05:30.581Z,13.87
2018-12-31T10:07:59.674Z,13.37
2018-12-31T10:10:28.792Z,13.10
2018-12-31T10:12:57.874Z,14.87
2018-12-31T10:15:27.050Z,14.97
2018-12-31T10:17:56.143Z,12.87
2018-12-31T10:20:25.242Z,14.43
2018-12-31T10:22:54.361Z,12.70
2018-12-31T10:25:23.452Z,13.30
2018-12-31T10:27:52.566Z,16.53
2018-12-31T10:30:21.679Z,13.87
2018-12-31T10:32:50.749Z,12.50
2018-12-31T10:35:19.846Z,15.83
2018-12-31T10:37:48.948Z,14.43
2018-12-31T10:40:18.048Z,13.07
2018-12-31T10:42:47.132Z,11.63
2018-12-31T10:45:16.222Z,11.57
2018-12-31T10:47:45.312Z,12.60
2018-12-31T10:50:14.406Z,13.03
2018-12-31T10:52:43.509Z,13.00
2018-12-31T10:55:13.506Z,13.77
2018-12-31T10:57:42.613Z,13.03
2018-12-31T11:00:11.705Z,12.77
2018-12-31T11:02:40.806Z,14.13
2018-12-31T11:05:09.907Z,12.17
2018-12-31T11:07:39.001Z,12.03
2018-12-31T11:10:08.514Z,13.50
2018-12-31T11:12:38.879Z,12.63
2018-12-31T11:15:08.046Z,12.80
2018-12-31T11:17:37.141Z,14.80
2018-12-31T11:20:06.242Z,16.40
2018-12-31T11:22:35.333Z,14.23
2018-12-31T11:25:04.662Z,15.70
2018-12-31T11:27:33.815Z,17.67
2018-12-31T11:30:02.969Z,18.00
2018-12-31T11:32:33.262Z,18.77
2018-12-31T11:35:02.358Z,18.90
2018-12-31T11:37:34.835Z,18.30
2018-12-31T11:40:02.325Z,30.30
2018-12-31T11:42:31.476Z,23.57
2018-12-31T11:45:00.568Z,18.40
2018-12-31T11:47:29.727Z,29.10
2018-12-31T11:49:59.709Z,22.00
2018-12-31T11:52:28.910Z,16.50
2018-12-31T11:54:59.307Z,13.40
2018-12-31T11:57:28.414Z,12.87
2018-12-31T11:59:57.532Z,11.63
2018-12-31T12:02:26.649Z,10.80
2018-12-31T12:04:55.748Z,13.73
2018-12-31T12:07:24.916Z,24.40
2018-12-31T12:09:54.016Z,35.90
2018-12-31T12:12:23.274Z,22.40
2018-12-31T12:14:52.371Z,18.13
2018-12-31T12:17:21.457Z,26.30
2018-12-31T12:19:50.554Z,29.60
2018-12-31T12:22:19.649Z,23.10
2018-12-31T12:24:49.040Z,16.93
2018-12-31T12:27:18.126Z,14.13
2018-12-31T12:29:47.232Z,39.13
2018-12-31T12:32:16.318Z,50.17
2018-12-31T12:34:45.425Z,30.90
2018-12-31T12:37:14.723Z,21.77
2018-12-31T12:39:43.793Z,25.23
2018-12-31T12:42:12.913Z,17.03
2018-12-31T12:44:41.998Z,14.97
2018-12-31T12:47:11.372Z,14.63
2018-12-31T12:49:40.459Z,11.53
2018-12-31T12:52:09.553Z,13.17
2018-12-31T12:54:38.638Z,12.17
2018-12-31T12:57:07.734Z,11.93
2018-12-31T12:59:36.835Z,11.20
2018-12-31T13:02:05.937Z,14.40
2018-12-31T13:04:35.016Z,13.93
2018-12-31T13:07:04.131Z,18.53
2018-12-31T13:09:33.228Z,16.90
2018-12-31T13:12:02.343Z,15.20
2018-12-31T13:14:31.497Z,16.33
2018-12-31T13:17:00.581Z,19.40
2018-12-31T13:19:29.678Z,17.73
2018-12-31T13:21:58.841Z,18.67
2018-12-31T13:24:27.953Z,15.70
2018-12-31T13:26:57.306Z,14.57
2018-12-31T13:29:26.406Z,17.17
2018-12-31T13:31:55.510Z,16.73
2018-12-31T13:34:24.609Z,15.53
2018-12-31T13:36:54.672Z,15.27
2018-12-31T13:39:23.774Z,19.53
2018-12-31T13:41:52.870Z,16.83
2018-12-31T13:44:21.968Z,16.93
2018-12-31T13:46:51.068Z,19.17
2018-12-31T13:49:20.422Z,15.03
2018-12-31T13:51:49.509Z,16.57
2018-12-31T13:54:18.604Z,15.70
2018-12-31T13:56:47.691Z,14.77
2018-12-31T13:59:16.789Z,14.80
2018-12-31T14:01:46.261Z,16.07
2018-12-31T14:04:15.381Z,16.53
2018-12-31T14:06:44.978Z,17.90
2018-12-31T14:09:14.148Z,15.63
2018-12-31T14:11:43.256Z,16.83
2018-12-31T14:14:12.533Z,18.27
2018-12-31T14:16:41.665Z,19.27
2018-12-31T14:19:10.765Z,20.57
2018-12-31T14:21:39.943Z,27.87
2018-12-31T14:24:09.036Z,19.17
2018-12-31T14:26:38.138Z,19.63
2018-12-31T14:29:07.241Z,18.17
2018-12-31T14:31:36.332Z,19.67
2018-12-31T14:34:05.547Z,24.20
2018-12-31T14:36:34.791Z,23.83
2018-12-31T14:39:05.781Z,25.00
2018-12-31T14:41:35.202Z,23.07
2018-12-31T14:44:04.345Z,23.07
2018-12-31T14:46:33.486Z,43.50
2018-12-31T14:49:02.617Z,33.90
2018-12-31T14:51:31.746Z,39.50
2018-12-31T14:54:00.888Z,28.47
2018-12-31T14:56:29.988Z,34.03
2018-12-31T14:58:59.115Z,28.40
2018-12-31T15:01:28.263Z,22.63
2018-12-31T15:03:57.352Z,27.93
2018-12-31T15:06:26.516Z,25.80
2018-12-31T15:08:55.630Z,20.83
2018-12-31T15:11:24.734Z,30.60
2018-12-31T15:13:54.052Z,30.40
2018-12-31T15:16:23.162Z,43.57
2018-12-31T15:18:52.252Z,74.20
2018-12-31T15:21:21.350Z,37.77
2018-12-31T15:23:50.453Z,64.93
2018-12-31T15:26:19.569Z,65.60
2018-12-31T15:28:48.657Z,38.30
2018-12-31T15:31:17.984Z,50.23
2018-12-31T15:33:47.497Z,71.00
2018-12-31T15:36:16.606Z,76.73
2018-12-31T15:38:45.696Z,58.57
2018-12-31T15:41:14.808Z,38.70
2018-12-31T15:43:43.894Z,33.90
2018-12-31T15:46:19.998Z,29.03
2018-12-31T15:48:43.786Z,26.07
2018-12-31T15:51:13.358Z,26.30
2018-12-31T15:53:43.208Z,36.40
2018-12-31T15:56:12.308Z,32.03
2018-12-31T15:58:41.648Z,38.13
2018-12-31T16:01:10.739Z,42.90
2018-12-31T16:03:40.316Z,84.73
2018-12-31T16:06:10.342Z,126.57
2018-12-31T16:08:39.442Z,73.53
2018-12-31T16:11:08.531Z,56.53
2018-12-31T16:13:37.706Z,57.97
2018-12-31T16:16:07.059Z,42.00
2018-12-31T16:18:36.169Z,47.43
2018-12-31T16:21:05.909Z,34.10
2018-12-31T16:23:35.190Z,33.90
2018-12-31T16:26:04.300Z,28.90
2018-12-31T16:28:33.653Z,30.90
2018-12-31T16:31:03.553Z,35.10
2018-12-31T16:33:32.653Z,28.33
2018-12-31T16:36:01.737Z,24.27
2018-12-31T16:38:30.920Z,25.27
2018-12-31T16:41:00.299Z,24.53
2018-12-31T16:43:29.384Z,24.00
2018-12-31T16:45:58.472Z,26.33
2018-12-31T16:48:27.579Z,33.13
2018-12-31T16:50:56.673Z,34.43
2018-12-31T16:53:26.136Z,24.83
2018-12-31T16:55:55.217Z,27.80
2018-12-31T16:58:24.663Z,30.87
2018-12-31T17:00:53.746Z,23.60
2018-12-31T17:03:22.842Z,24.57
2018-12-31T17:05:52.451Z,23.17
2018-12-31T17:08:21.545Z,24.17
2018-12-31T17:10:50.940Z,23.73
2018-12-31T17:13:20.574Z,23.30
2018-12-31T17:15:49.657Z,26.67
2018-12-31T17:18:19.132Z,30.07
2018-12-31T17:20:48.217Z,34.30
2018-12-31T17:23:17.337Z,63.37
2018-12-31T17:25:46.438Z,57.80
2018-12-31T17:28:15.533Z,64.13
2018-12-31T17:30:45.455Z,63.47
2018-12-31T17:33:14.565Z,62.00
2018-12-31T17:35:43.912Z,60.07
2018-12-31T17:38:12.988Z,48.70
2018-12-31T17:40:42.089Z,102.67
2018-12-31T17:43:12.056Z,89.73
2018-12-31T17:45:41.177Z,67.33
2018-12-31T17:48:10.280Z,118.57
2018-12-31T17:50:39.407Z,96.27
2018-12-31T17:53:08.849Z,81.03
2018-12-31T17:55:38.320Z,51.17
2018-12-31T17:58:07.406Z,59.50
2018-12-31T18:00:36.518Z,62.13
2018-12-31T18:03:05.616Z,65.33
2018-12-31T18:05:34.722Z,57.40
2018-12-31T18:08:04.090Z,52.53
2018-12-31T18:10:33.196Z,51.13
2018-12-31T18:13:02.301Z,44.70
2018-12-31T18:15:31.405Z,96.83
2018-12-31T18:18:00.516Z,92.43
2018-12-31T18:20:30.959Z,51.13
2018-12-31T18:23:00.363Z,54.87
2018-12-31T18:25:30.435Z,43.87
2018-12-31T18:27:59.543Z,43.80
2018-12-31T18:30:28.651Z,41.40
2018-12-31T18:32:58.011Z,35.43
2018-12-31T18:35:27.141Z,32.40
2018-12-31T18:37:56.234Z,41.23
2018-12-31T18:40:25.348Z,43.23
2018-12-31T18:42:54.442Z,38.90
2018-12-31T18:45:23.913Z,64.73
2018-12-31T18:47:53.002Z,40.87
2018-12-31T18:50:22.103Z,57.23
2018-12-31T18:52:51.185Z,38.50
2018-12-31T18:55:20.277Z,35.00
2018-12-31T18:57:49.751Z,70.87
2018-12-31T19:00:19.158Z,56.00
2018-12-31T19:02:48.265Z,70.20
2018-12-31T19:05:17.350Z,43.63
2018-12-31T19:07:46.513Z,50.13
2018-12-31T19:10:15.881Z,49.63
2018-12-31T19:12:44.982Z,39.37
2018-12-31T19:15:14.067Z,36.77
2018-12-31T19:17:43.160Z,35.77
2018-12-31T19:20:12.540Z,52.70
2018-12-31T19:22:42.008Z,47.17
2018-12-31T19:25:11.387Z,143.67
2018-12-31T19:27:40.753Z,67.70
2018-12-31T19:30:09.844Z,40.20
2018-12-31T19:32:38.977Z,28.50
2018-12-31T19:35:08.613Z,26.77
2018-12-31T19:37:37.716Z,28.87
2018-12-31T19:40:06.838Z,33.37
2018-12-31T19:42:35.928Z,36.50
2018-12-31T19:45:05.076Z,30.10
2018-12-31T19:47:34.598Z,28.97
2018-12-31T19:50:04.649Z,25.90
2018-12-31T19:52:33.786Z,29.80
2018-12-31T19:55:04.185Z,29.53
2018-12-31T19:57:33.295Z,26.77
2018-12-31T20:00:02.662Z,25.77
2018-12-31T20:02:31.779Z,23.90
2018-12-31T20:05:00.856Z,21.47
2018-12-31T20:07:29.994Z,25.77
2018-12-31T20:09:59.076Z,25.47
2018-12-31T20:12:28.187Z,23.93
2018-12-31T20:14:57.398Z,23.23
2018-12-31T20:17:26.488Z,23.67
2018-12-31T20:19:55.578Z,24.43
2018-12-31T20:22:24.760Z,25.67
2018-12-31T20:24:54.249Z,26.63
2018-12-31T20:27:23.378Z,26.60
2018-12-31T20:29:52.495Z,24.37
2018-12-31T20:32:21.585Z,24.30
2018-12-31T20:34:50.755Z,27.03
2018-12-31T20:37:19.866Z,24.03
2018-12-31T20:39:51.665Z,22.77
2018-12-31T20:42:20.748Z,35.27
2018-12-31T20:44:49.866Z,40.00
2018-12-31T20:47:19.037Z,40.20
2018-12-31T20:49:48.226Z,43.63
2018-12-31T20:52:17.314Z,38.83
2018-12-31T20:54:46.400Z,31.57
2018-12-31T20:57:15.617Z,27.20
2018-12-31T20:59:44.746Z,25.93
2018-12-31T21:02:13.894Z,25.47
2018-12-31T21:04:43.057Z,25.80
2018-12-31T21:07:12.153Z,23.73
2018-12-31T21:09:42.379Z,23.63
2018-12-31T21:12:11.491Z,23.27
2018-12-31T21:14:40.584Z,24.10
2018-12-31T21:17:11.076Z,23.70
2018-12-31T21:19:40.181Z,24.10
2018-12-31T21:22:09.264Z,22.67
2018-12-31T21:24:38.407Z,22.70
2018-12-31T21:27:07.577Z,28.30
2018-12-31T21:29:36.756Z,48.00
2018-12-31T21:32:05.853Z,40.70
2018-12-31T21:34:34.996Z,30.40
2018-12-31T21:37:04.144Z,27.47
2018-12-31T21:39:33.562Z,27.50
2018-12-31T21:42:02.708Z,29.40
2018-12-31T21:44:32.091Z,28.00
2018-12-31T21:47:01.169Z,25.67
2018-12-31T21:49:30.272Z,35.30
2018-12-31T21:51:59.554Z,32.83
2018-12-31T21:54:28.676Z,32.97
2018-12-31T21:56:58.171Z,35.40
2018-12-31T21:59:27.270Z,27.97
2018-12-31T22:01:56.368Z,27.03
2018-12-31T22:04:25.468Z,29.60
2018-12-31T22:06:54.558Z,29.63
2018-12-31T22:09:24.699Z,29.90
2018-12-31T22:11:53.895Z,27.83
2018-12-31T22:14:23.285Z,48.90
2018-12-31T22:16:52.734Z,56.07
2018-12-31T22:19:22.179Z,40.30
2018-12-31T22:21:54.628Z,29.43
2018-12-31T22:24:25.141Z,25.03
2018-12-31T22:26:54.672Z,24.20
2018-12-31T22:29:25.601Z,23.70
2018-12-31T22:31:55.042Z,26.00
2018-12-31T22:34:24.938Z,148.47
2018-12-31T22:36:54.411Z,42.77
2018-12-31T22:39:23.846Z,32.50
2018-12-31T22:41:53.042Z,50.10
2018-12-31T22:44:22.175Z,60.13
2018-12-31T22:46:51.571Z,67.60
2018-12-31T22:49:20.662Z,104.53
2018-12-31T22:51:49.821Z,57.80
2018-12-31T22:54:19.056Z,35.77
2018-12-31T22:56:48.247Z,36.77
2018-12-31T22:59:17.678Z,28.20
2018-12-31T23:01:46.851Z,228.43
2018-12-31T23:04:15.962Z,852.83
2018-12-31T23:06:47.169Z,999.90
2018-12-31T23:09:16.252Z,771.87
2018-12-31T23:11:45.389Z,754.20
2018-12-31T23:14:14.477Z,753.00
2018-12-31T23:16:43.670Z,936.67
2018-12-31T23:19:13.316Z,829.17
2018-12-31T23:21:42.500Z,744.33
2018-12-31T23:24:11.694Z,574.33
2018-12-31T23:26:40.861Z,381.77
2018-12-31T23:29:09.963Z,258.30
2018-12-31T23:31:39.121Z,199.00
2018-12-31T23:34:08.234Z,177.77
2018-12-31T23:36:37.823Z,200.57
2018-12-31T23:39:06.999Z,262.43
2018-12-31T23:41:36.101Z,338.73
2018-12-31T23:44:05.570Z,253.40
2018-12-31T23:46:34.967Z,297.23
2018-12-31T23:49:04.506Z,257.07
2018-12-31T23:51:33.618Z,239.47
2018-12-31T23:54:02.724Z,115.57
2018-12-31T23:56:31.844Z,137.90
2018-12-31T23:59:00.973Z,140.90
